sensor_id;sensor_type;location;lat;lon;timestamp;pressure;altitude;pressure_sealevel;temperature;humidity
45541;BME280;31265;49.680;8.608;2023-05-22T00:02:08;100078.88;;;15.59;100.00
45541;BME280;31265;49.680;8.608;2023-05-22T00:04:37;100084.59;;;15.61;100.00
45541;BME280;31265;49.680;8.608;2023-05-22T00:07:07;100081.53;;;15.57;100.00
45541;BME280;31265;49.680;8.608;2023-05-22T00:09:35;100076.34;;;15.63;100.00
45541;BME280;31265;49.680;8.608;2023-05-22T00:12:04;100074.00;;;15.59;100.00
45541;BME280;31265;49.680;8.608;2023-05-22T00:14:33;100075.94;;;15.57;100.00
45541;BME280;31265;49.680;8.608;2023-05-22T00:17:01;100073.75;;;15.55;100.00
45541;BME280;31265;49.680;8.608;2023-05-22T00:19:30;100072.28;;;15.54;100.00
45541;BME280;31265;49.680;8.608;2023-05-22T00:21:59;100061.84;;;15.55;100.00
45541;BME280;31265;49.680;8.608;2023-05-22T00:24:28;100065.97;;;15.54;100.00
45541;BME280;31265;49.680;8.608;2023-05-22T00:26:58;100068.28;;;15.57;100.00
45541;BME280;31265;49.680;8.608;2023-05-22T00:29:26;100061.84;;;15.55;100.00
45541;BME280;31265;49.680;8.608;2023-05-22T00:31:56;100061.97;;;15.57;100.00
45541;BME280;31265;49.680;8.608;2023-05-22T00:34:24;100064.03;;;15.56;100.00
45541;BME280;31265;49.680;8.608;2023-05-22T00:36:53;100065.97;;;15.54;100.00
45541;BME280;31265;49.680;8.608;2023-05-22T00:39:21;100056.25;;;15.55;100.00
45541;BME280;31265;49.680;8.608;2023-05-22T00:41:51;100054.66;;;15.52;100.00
45541;BME280;31265;49.680;8.608;2023-05-22T00:44:20;100062.91;;;15.49;100.00
45541;BME280;31265;49.680;8.608;2023-05-22T00:46:51;100064.00;;;15.44;100.00
45541;BME280;31265;49.680;8.608;2023-05-22T00:49:20;100063.63;;;15.38;100.00
45541;BME280;31265;49.680;8.608;2023-05-22T00:51:50;100062.88;;;15.38;100.00
45541;BME280;31265;49.680;8.608;2023-05-22T00:54:18;100059.50;;;15.39;100.00
45541;BME280;31265;49.680;8.608;2023-05-22T00:56:47;100064.44;;;15.29;100.00
45541;BME280;31265;49.680;8.608;2023-05-22T00:59:17;100069.03;;;15.24;100.00
45541;BME280;31265;49.680;8.608;2023-05-22T01:01:47;100063.31;;;15.22;100.00
45541;BME280;31265;49.680;8.608;2023-05-22T01:04:16;100060.47;;;15.11;100.00
45541;BME280;31265;49.680;8.608;2023-05-22T01:06:47;100064.34;;;15.05;100.00
45541;BME280;31265;49.680;8.608;2023-05-22T01:09:15;100068.22;;;15.00;100.00
45541;BME280;31265;49.680;8.608;2023-05-22T01:11:52;100067.09;;;14.94;100.00
45541;BME280;31265;49.680;8.608;2023-05-22T01:14:33;100066.69;;;14.88;100.00
45541;BME280;31265;49.680;8.608;2023-05-22T01:17:07;100068.63;;;14.85;100.00
45541;BME280;31265;49.680;8.608;2023-05-22T01:19:53;100064.50;;;14.86;100.00
45541;BME280;31265;49.680;8.608;2023-05-22T01:22:38;100065.97;;;14.87;100.00
45541;BME280;31265;49.680;8.608;2023-05-22T01:25:29;100065.81;;;14.85;100.00
45541;BME280;31265;49.680;8.608;2023-05-22T01:28:26;100059.84;;;14.79;100.00
45541;BME280;31265;49.680;8.608;2023-05-22T01:31:01;100063.81;;;14.76;100.00
45541;BME280;31265;49.680;8.608;2023-05-22T01:33:31;100073.19;;;14.80;100.00
45541;BME280;31265;49.680;8.608;2023-05-22T01:36:01;100068.16;;;14.89;100.00
45541;BME280;31265;49.680;8.608;2023-05-22T01:38:31;100074.19;;;14.85;100.00
45541;BME280;31265;49.680;8.608;2023-05-22T01:41:01;100078.06;;;14.80;100.00
45541;BME280;31265;49.680;8.608;2023-05-22T01:43:29;100078.25;;;14.72;100.00
45541;BME280;31265;49.680;8.608;2023-05-22T01:46:00;100081.84;;;14.63;100.00
45541;BME280;31265;49.680;8.608;2023-05-22T01:48:30;100084.25;;;14.57;100.00
45541;BME280;31265;49.680;8.608;2023-05-22T01:51:04;100088.66;;;14.50;100.00
45541;BME280;31265;49.680;8.608;2023-05-22T01:53:39;100085.72;;;14.48;100.00
45541;BME280;31265;49.680;8.608;2023-05-22T01:56:13;100086.63;;;14.41;100.00
45541;BME280;31265;49.680;8.608;2023-05-22T01:58:47;100084.75;;;14.34;100.00
45541;BME280;31265;49.680;8.608;2023-05-22T02:01:21;100083.31;;;14.33;100.00
45541;BME280;31265;49.680;8.608;2023-05-22T02:03:54;100086.56;;;14.29;100.00
45541;BME280;31265;49.680;8.608;2023-05-22T02:06:25;100086.88;;;14.24;100.00
45541;BME280;31265;49.680;8.608;2023-05-22T02:08:55;100081.75;;;14.20;100.00
45541;BME280;31265;49.680;8.608;2023-05-22T02:11:25;100089.41;;;14.19;100.00
45541;BME280;31265;49.680;8.608;2023-05-22T02:13:55;100082.81;;;14.15;100.00
45541;BME280;31265;49.680;8.608;2023-05-22T02:16:25;100086.31;;;14.15;100.00
45541;BME280;31265;49.680;8.608;2023-05-22T02:18:58;100085.59;;;14.15;100.00
45541;BME280;31265;49.680;8.608;2023-05-22T02:21:33;100086.31;;;14.15;100.00
45541;BME280;31265;49.680;8.608;2023-05-22T02:24:02;100092.19;;;14.19;100.00
45541;BME280;31265;49.680;8.608;2023-05-22T02:26:30;100092.19;;;14.19;100.00
45541;BME280;31265;49.680;8.608;2023-05-22T02:29:00;100089.50;;;14.22;100.00
45541;BME280;31265;49.680;8.608;2023-05-22T02:31:30;100089.81;;;14.26;100.00
45541;BME280;31265;49.680;8.608;2023-05-22T02:33:59;100094.66;;;14.25;100.00
45541;BME280;31265;49.680;8.608;2023-05-22T02:36:32;100099.94;;;14.21;100.00
45541;BME280;31265;49.680;8.608;2023-05-22T02:39:00;100089.25;;;14.17;100.00
45541;BME280;31265;49.680;8.608;2023-05-22T02:41:29;100095.75;;;14.10;100.00
45541;BME280;31265;49.680;8.608;2023-05-22T02:43:57;100100.88;;;14.04;100.00
45541;BME280;31265;49.680;8.608;2023-05-22T02:46:26;100105.59;;;14.02;100.00
45541;BME280;31265;49.680;8.608;2023-05-22T02:48:55;100101.78;;;13.97;100.00
45541;BME280;31265;49.680;8.608;2023-05-22T02:51:23;100098.00;;;13.92;100.00
45541;BME280;31265;49.680;8.608;2023-05-22T02:53:52;100101.09;;;13.87;100.00
45541;BME280;31265;49.680;8.608;2023-05-22T02:56:20;100095.41;;;13.85;100.00
45541;BME280;31265;49.680;8.608;2023-05-22T02:58:50;100103.75;;;13.85;100.00
45541;BME280;31265;49.680;8.608;2023-05-22T03:01:18;100104.66;;;13.77;100.00
45541;BME280;31265;49.680;8.608;2023-05-22T03:03:47;100108.47;;;13.72;100.00
45541;BME280;31265;49.680;8.608;2023-05-22T03:06:18;100109.06;;;13.71;100.00
45541;BME280;31265;49.680;8.608;2023-05-22T03:08:47;100107.47;;;13.68;100.00
45541;BME280;31265;49.680;8.608;2023-05-22T03:11:15;100110.09;;;13.66;100.00
45541;BME280;31265;49.680;8.608;2023-05-22T03:13:44;100109.22;;;13.63;100.00
45541;BME280;31265;49.680;8.608;2023-05-22T03:16:12;100110.41;;;13.60;100.00
45541;BME280;31265;49.680;8.608;2023-05-22T03:18:44;100113.63;;;13.57;100.00
45541;BME280;31265;49.680;8.608;2023-05-22T03:21:13;100114.34;;;13.57;100.00
45541;BME280;31265;49.680;8.608;2023-05-22T03:23:43;100105.56;;;13.51;100.00
45541;BME280;31265;49.680;8.608;2023-05-22T03:26:12;100105.56;;;13.51;100.00
45541;BME280;31265;49.680;8.608;2023-05-22T03:28:41;100105.56;;;13.51;100.00
45541;BME280;31265;49.680;8.608;2023-05-22T03:31:10;100106.88;;;13.50;100.00
45541;BME280;31265;49.680;8.608;2023-05-22T03:33:55;100113.50;;;13.45;100.00
45541;BME280;31265;49.680;8.608;2023-05-22T03:36:23;100123.19;;;13.44;100.00
45541;BME280;31265;49.680;8.608;2023-05-22T03:38:54;100116.72;;;13.41;100.00
45541;BME280;31265;49.680;8.608;2023-05-22T03:41:23;100125.09;;;13.41;100.00
45541;BME280;31265;49.680;8.608;2023-05-22T03:43:51;100124.94;;;13.39;100.00
45541;BME280;31265;49.680;8.608;2023-05-22T03:46:21;100123.63;;;13.40;100.00
45541;BME280;31265;49.680;8.608;2023-05-22T03:48:49;100118.78;;;13.41;100.00
45541;BME280;31265;49.680;8.608;2023-05-22T03:51:18;100124.38;;;13.41;100.00
45541;BME280;31265;49.680;8.608;2023-05-22T03:53:47;100121.72;;;13.43;100.00
45541;BME280;31265;49.680;8.608;2023-05-22T03:56:18;100127.56;;;13.47;100.00
45541;BME280;31265;49.680;8.608;2023-05-22T03:58:47;100134.03;;;13.49;100.00
45541;BME280;31265;49.680;8.608;2023-05-22T04:01:16;100131.53;;;13.53;100.00
45541;BME280;31265;49.680;8.608;2023-05-22T04:03:44;100137.41;;;13.58;100.00
45541;BME280;31265;49.680;8.608;2023-05-22T04:06:13;100135.03;;;13.64;100.00
45541;BME280;31265;49.680;8.608;2023-05-22T04:08:42;100138.84;;;13.68;100.00
45541;BME280;31265;49.680;8.608;2023-05-22T04:11:10;100143.41;;;13.73;100.00
45541;BME280;31265;49.680;8.608;2023-05-22T04:13:43;100143.09;;;13.79;100.00
45541;BME280;31265;49.680;8.608;2023-05-22T04:16:12;100135.75;;;13.84;100.00
45541;BME280;31265;49.680;8.608;2023-05-22T04:18:45;100144.56;;;13.90;100.00
45541;BME280;31265;49.680;8.608;2023-05-22T04:21:14;100140.56;;;13.93;100.00
45541;BME280;31265;49.680;8.608;2023-05-22T04:23:44;100147.31;;;14.00;100.00
45541;BME280;31265;49.680;8.608;2023-05-22T04:26:14;100145.81;;;14.08;100.00
45541;BME280;31265;49.680;8.608;2023-05-22T04:28:45;100146.50;;;14.18;100.00
45541;BME280;31265;49.680;8.608;2023-05-22T04:31:13;100154.56;;;14.24;100.00
45541;BME280;31265;49.680;8.608;2023-05-22T04:33:43;100146.78;;;14.32;100.00
45541;BME280;31265;49.680;8.608;2023-05-22T04:36:14;100152.31;;;14.42;100.00
45541;BME280;31265;49.680;8.608;2023-05-22T04:38:43;100154.94;;;14.50;100.00
45541;BME280;31265;49.680;8.608;2023-05-22T04:41:13;100162.09;;;14.53;100.00
45541;BME280;31265;49.680;8.608;2023-05-22T04:43:45;100157.28;;;14.53;100.00
45541;BME280;31265;49.680;8.608;2023-05-22T04:46:14;100156.69;;;14.55;100.00
45541;BME280;31265;49.680;8.608;2023-05-22T04:48:43;100154.19;;;14.59;100.00
45541;BME280;31265;49.680;8.608;2023-05-22T04:51:14;100153.72;;;14.62;100.00
45541;BME280;31265;49.680;8.608;2023-05-22T04:53:44;100157.78;;;14.71;100.00
45541;BME280;31265;49.680;8.608;2023-05-22T04:56:15;100154.94;;;14.81;100.00
45541;BME280;31265;49.680;8.608;2023-05-22T04:59:04;100153.13;;;14.86;100.00
45541;BME280;31265;49.680;8.608;2023-05-22T05:01:37;100148.56;;;14.90;100.00
45541;BME280;31265;49.680;8.608;2023-05-22T05:04:05;100143.19;;;15.04;100.00
45541;BME280;31265;49.680;8.608;2023-05-22T05:06:34;100155.75;;;15.15;100.00
45541;BME280;31265;49.680;8.608;2023-05-22T05:09:04;100155.28;;;15.18;100.00
45541;BME280;31265;49.680;8.608;2023-05-22T05:11:35;100154.22;;;15.23;100.00
45541;BME280;31265;49.680;8.608;2023-05-22T05:14:11;100155.75;;;15.36;100.00
45541;BME280;31265;49.680;8.608;2023-05-22T05:16:45;100153.25;;;15.52;100.00
45541;BME280;31265;49.680;8.608;2023-05-22T05:19:28;100166.06;;;15.67;100.00
45541;BME280;31265;49.680;8.608;2023-05-22T05:22:03;100158.25;;;15.75;100.00
45541;BME280;31265;49.680;8.608;2023-05-22T05:24:33;100161.91;;;15.89;100.00
45541;BME280;31265;49.680;8.608;2023-05-22T05:27:02;100157.06;;;16.02;100.00
45541;BME280;31265;49.680;8.608;2023-05-22T05:29:32;100156.38;;;16.13;100.00
45541;BME280;31265;49.680;8.608;2023-05-22T05:32:11;100155.28;;;16.18;100.00
45541;BME280;31265;49.680;8.608;2023-05-22T05:34:56;100148.72;;;16.25;100.00
45541;BME280;31265;49.680;8.608;2023-05-22T05:37:40;100154.94;;;16.36;100.00
45541;BME280;31265;49.680;8.608;2023-05-22T05:40:11;100155.91;;;16.52;100.00
45541;BME280;31265;49.680;8.608;2023-05-22T05:42:45;100159.44;;;16.64;100.00
45541;BME280;31265;49.680;8.608;2023-05-22T05:45:18;100158.59;;;16.85;100.00
45541;BME280;31265;49.680;8.608;2023-05-22T05:47:46;100156.88;;;16.92;100.00
45541;BME280;31265;49.680;8.608;2023-05-22T05:50:15;100153.19;;;17.01;100.00
45541;BME280;31265;49.680;8.608;2023-05-22T05:52:45;100165.47;;;17.19;100.00
45541;BME280;31265;49.680;8.608;2023-05-22T05:55:16;100156.63;;;17.37;100.00
45541;BME280;31265;49.680;8.608;2023-05-22T05:57:50;100166.56;;;17.52;100.00
45541;BME280;31265;49.680;8.608;2023-05-22T06:00:26;100166.84;;;17.70;100.00
45541;BME280;31265;49.680;8.608;2023-05-22T06:02:57;100167.09;;;17.74;100.00
45541;BME280;31265;49.680;8.608;2023-05-22T06:05:48;100165.91;;;17.65;100.00
45541;BME280;31265;49.680;8.608;2023-05-22T06:08:23;100164.63;;;17.80;100.00
45541;BME280;31265;49.680;8.608;2023-05-22T06:10:52;100169.91;;;17.99;100.00
45541;BME280;31265;49.680;8.608;2023-05-22T06:13:37;100172.09;;;18.15;100.00
45541;BME280;31265;49.680;8.608;2023-05-22T06:16:07;100183.16;;;18.24;100.00
45541;BME280;31265;49.680;8.608;2023-05-22T06:18:35;100177.69;;;18.68;100.00
45541;BME280;31265;49.680;8.608;2023-05-22T06:21:04;100175.66;;;18.82;100.00
45541;BME280;31265;49.680;8.608;2023-05-22T06:23:34;100178.13;;;19.04;100.00
45541;BME280;31265;49.680;8.608;2023-05-22T06:26:04;100186.00;;;19.21;100.00
45541;BME280;31265;49.680;8.608;2023-05-22T06:28:37;100178.94;;;19.20;100.00
45541;BME280;31265;49.680;8.608;2023-05-22T06:31:07;100179.84;;;19.39;100.00
45541;BME280;31265;49.680;8.608;2023-05-22T06:33:41;100178.41;;;19.67;100.00
45541;BME280;31265;49.680;8.608;2023-05-22T06:36:10;100185.66;;;20.02;100.00
45541;BME280;31265;49.680;8.608;2023-05-22T06:38:39;100174.88;;;20.28;100.00
45541;BME280;31265;49.680;8.608;2023-05-22T06:41:21;100176.13;;;20.09;100.00
45541;BME280;31265;49.680;8.608;2023-05-22T06:43:50;100182.59;;;20.44;100.00
45541;BME280;31265;49.680;8.608;2023-05-22T06:46:26;100181.31;;;20.47;100.00
45541;BME280;31265;49.680;8.608;2023-05-22T06:49:04;100177.50;;;20.72;100.00
45541;BME280;31265;49.680;8.608;2023-05-22T06:51:49;100177.16;;;20.48;100.00
45541;BME280;31265;49.680;8.608;2023-05-22T06:54:17;100171.78;;;20.70;100.00
45541;BME280;31265;49.680;8.608;2023-05-22T06:56:50;100182.81;;;20.97;100.00
45541;BME280;31265;49.680;8.608;2023-05-22T06:59:19;100184.75;;;21.26;100.00
45541;BME280;31265;49.680;8.608;2023-05-22T07:01:49;100187.44;;;21.40;100.00
45541;BME280;31265;49.680;8.608;2023-05-22T07:04:25;100189.31;;;21.52;100.00
45541;BME280;31265;49.680;8.608;2023-05-22T07:07:00;100186.56;;;21.72;100.00
45541;BME280;31265;49.680;8.608;2023-05-22T07:09:28;100187.50;;;21.60;100.00
45541;BME280;31265;49.680;8.608;2023-05-22T07:11:57;100182.34;;;21.73;100.00
45541;BME280;31265;49.680;8.608;2023-05-22T07:14:26;100196.84;;;21.83;100.00
45541;BME280;31265;49.680;8.608;2023-05-22T07:16:56;100194.69;;;21.99;100.00
45541;BME280;31265;49.680;8.608;2023-05-22T07:19:29;100200.88;;;22.14;100.00
45541;BME280;31265;49.680;8.608;2023-05-22T07:22:01;100203.38;;;22.23;100.00
45541;BME280;31265;49.680;8.608;2023-05-22T07:24:33;100209.81;;;22.08;100.00
45541;BME280;31265;49.680;8.608;2023-05-22T07:27:02;100205.25;;;21.81;100.00
45541;BME280;31265;49.680;8.608;2023-05-22T07:29:32;100204.75;;;21.68;100.00
45541;BME280;31265;49.680;8.608;2023-05-22T07:32:04;100202.91;;;21.75;100.00
45541;BME280;31265;49.680;8.608;2023-05-22T07:34:34;100210.50;;;21.88;100.00
45541;BME280;31265;49.680;8.608;2023-05-22T07:37:06;100205.91;;;21.79;100.00
45541;BME280;31265;49.680;8.608;2023-05-22T07:39:36;100209.53;;;21.82;100.00
45541;BME280;31265;49.680;8.608;2023-05-22T07:42:06;100203.63;;;22.11;100.00
45541;BME280;31265;49.680;8.608;2023-05-22T07:44:41;100207.25;;;22.52;100.00
45541;BME280;31265;49.680;8.608;2023-05-22T07:47:13;100214.22;;;22.69;100.00
45541;BME280;31265;49.680;8.608;2023-05-22T07:49:42;100213.56;;;23.10;100.00
45541;BME280;31265;49.680;8.608;2023-05-22T07:52:11;100216.66;;;23.40;100.00
45541;BME280;31265;49.680;8.608;2023-05-22T07:54:39;100216.53;;;23.36;100.00
45541;BME280;31265;49.680;8.608;2023-05-22T07:57:11;100218.97;;;23.68;100.00
45541;BME280;31265;49.680;8.608;2023-05-22T07:59:41;100215.97;;;23.84;100.00
45541;BME280;31265;49.680;8.608;2023-05-22T08:02:11;100228.16;;;23.89;100.00
45541;BME280;31265;49.680;8.608;2023-05-22T08:04:42;100221.41;;;24.00;100.00
45541;BME280;31265;49.680;8.608;2023-05-22T08:07:11;100232.81;;;24.26;100.00
45541;BME280;31265;49.680;8.608;2023-05-22T08:09:39;100231.31;;;24.01;100.00
45541;BME280;31265;49.680;8.608;2023-05-22T08:12:08;100228.41;;;23.75;100.00
45541;BME280;31265;49.680;8.608;2023-05-22T08:14:37;100229.50;;;24.34;100.00
45541;BME280;31265;49.680;8.608;2023-05-22T08:17:06;100221.66;;;24.56;100.00
45541;BME280;31265;49.680;8.608;2023-05-22T08:19:34;100226.63;;;24.58;100.00
45541;BME280;31265;49.680;8.608;2023-05-22T08:22:05;100230.16;;;24.56;100.00
45541;BME280;31265;49.680;8.608;2023-05-22T08:24:33;100223.22;;;24.61;100.00
45541;BME280;31265;49.680;8.608;2023-05-22T08:27:03;100228.38;;;24.69;100.00
45541;BME280;31265;49.680;8.608;2023-05-22T08:29:31;100225.25;;;24.59;100.00
45541;BME280;31265;49.680;8.608;2023-05-22T08:32:00;100217.81;;;24.72;100.00
45541;BME280;31265;49.680;8.608;2023-05-22T08:34:28;100228.00;;;24.81;100.00
45541;BME280;31265;49.680;8.608;2023-05-22T08:36:58;100225.09;;;24.79;100.00
45541;BME280;31265;49.680;8.608;2023-05-22T08:39:28;100221.16;;;24.90;100.00
45541;BME280;31265;49.680;8.608;2023-05-22T08:41:57;100224.97;;;24.75;100.00
45541;BME280;31265;49.680;8.608;2023-05-22T08:44:26;100225.25;;;24.59;100.00
45541;BME280;31265;49.680;8.608;2023-05-22T08:46:56;100228.53;;;24.49;100.00
45541;BME280;31265;49.680;8.608;2023-05-22T08:49:26;100222.75;;;24.21;100.00
45541;BME280;31265;49.680;8.608;2023-05-22T08:52:01;100220.06;;;24.27;100.00
45541;BME280;31265;49.680;8.608;2023-05-22T08:54:32;100215.97;;;24.32;100.00
45541;BME280;31265;49.680;8.608;2023-05-22T08:57:05;100213.25;;;24.12;100.00
45541;BME280;31265;49.680;8.608;2023-05-22T08:59:34;100202.66;;;24.13;100.00
45541;BME280;31265;49.680;8.608;2023-05-22T09:02:03;100206.88;;;24.12;100.00
45541;BME280;31265;49.680;8.608;2023-05-22T09:04:33;100203.31;;;24.11;100.00
45541;BME280;31265;49.680;8.608;2023-05-22T09:07:02;100205.13;;;24.49;100.00
45541;BME280;31265;49.680;8.608;2023-05-22T09:09:36;100206.47;;;25.26;100.00
45541;BME280;31265;49.680;8.608;2023-05-22T09:12:06;100207.00;;;25.18;100.00
45541;BME280;31265;49.680;8.608;2023-05-22T09:14:39;100206.22;;;24.89;100.00
45541;BME280;31265;49.680;8.608;2023-05-22T09:17:10;100208.44;;;25.19;100.00
45541;BME280;31265;49.680;8.608;2023-05-22T09:19:43;100203.19;;;25.09;96.78
45541;BME280;31265;49.680;8.608;2023-05-22T09:22:13;100206.13;;;24.85;100.00
45541;BME280;31265;49.680;8.608;2023-05-22T09:24:44;100204.28;;;24.96;99.55
45541;BME280;31265;49.680;8.608;2023-05-22T09:27:13;100203.28;;;25.40;93.88
45541;BME280;31265;49.680;8.608;2023-05-22T09:29:48;100199.09;;;26.05;91.28
45541;BME280;31265;49.680;8.608;2023-05-22T09:32:17;100198.19;;;26.29;90.31
45541;BME280;31265;49.680;8.608;2023-05-22T09:34:46;100197.53;;;26.32;86.09
45541;BME280;31265;49.680;8.608;2023-05-22T09:37:15;100197.41;;;25.92;98.32
45541;BME280;31265;49.680;8.608;2023-05-22T09:39:46;100193.28;;;26.33;90.57
45541;BME280;31265;49.680;8.608;2023-05-22T09:42:18;100196.88;;;26.68;87.34
45541;BME280;31265;49.680;8.608;2023-05-22T09:44:47;100196.16;;;27.08;85.43
45541;BME280;31265;49.680;8.608;2023-05-22T09:47:15;100207.88;;;27.27;82.77
45541;BME280;31265;49.680;8.608;2023-05-22T09:49:45;100189.28;;;27.68;80.76
45541;BME280;31265;49.680;8.608;2023-05-22T09:52:15;100199.72;;;27.98;77.78
45541;BME280;31265;49.680;8.608;2023-05-22T09:54:49;100198.94;;;28.48;76.15
45541;BME280;31265;49.680;8.608;2023-05-22T09:57:23;100197.13;;;28.18;78.16
45541;BME280;31265;49.680;8.608;2023-05-22T09:59:54;100191.78;;;27.90;76.63
45541;BME280;31265;49.680;8.608;2023-05-22T10:02:25;100199.13;;;27.59;77.32
45541;BME280;31265;49.680;8.608;2023-05-22T10:04:54;100195.09;;;27.30;84.42
45541;BME280;31265;49.680;8.608;2023-05-22T10:07:26;100185.16;;;27.77;80.72
45541;BME280;31265;49.680;8.608;2023-05-22T10:10:03;100183.38;;;27.54;78.93
45541;BME280;31265;49.680;8.608;2023-05-22T10:12:40;100186.47;;;27.23;81.08
45541;BME280;31265;49.680;8.608;2023-05-22T10:15:10;100181.09;;;27.01;83.73
45541;BME280;31265;49.680;8.608;2023-05-22T10:17:39;100178.81;;;26.94;87.83
45541;BME280;31265;49.680;8.608;2023-05-22T10:20:09;100177.41;;;26.95;84.88
45541;BME280;31265;49.680;8.608;2023-05-22T10:22:37;100176.19;;;27.49;83.05
45541;BME280;31265;49.680;8.608;2023-05-22T10:25:08;100181.50;;;28.23;76.82
45541;BME280;31265;49.680;8.608;2023-05-22T10:27:39;100175.28;;;27.82;82.77
45541;BME280;31265;49.680;8.608;2023-05-22T10:30:15;100162.03;;;27.55;85.02
45541;BME280;31265;49.680;8.608;2023-05-22T10:33:09;100167.66;;;28.58;70.88
45541;BME280;31265;49.680;8.608;2023-05-22T10:35:42;100166.75;;;29.08;70.97
45541;BME280;31265;49.680;8.608;2023-05-22T10:38:25;100172.38;;;29.98;64.71
45541;BME280;31265;49.680;8.608;2023-05-22T10:40:57;100171.19;;;30.60;62.63
45541;BME280;31265;49.680;8.608;2023-05-22T10:43:28;100165.31;;;30.19;65.41
45541;BME280;31265;49.680;8.608;2023-05-22T10:46:04;100158.94;;;30.29;69.68
45541;BME280;31265;49.680;8.608;2023-05-22T10:48:37;100171.97;;;30.96;61.60
45541;BME280;31265;49.680;8.608;2023-05-22T10:51:05;100157.38;;;30.04;61.12
45541;BME280;31265;49.680;8.608;2023-05-22T10:53:34;100153.22;;;30.33;62.04
45541;BME280;31265;49.680;8.608;2023-05-22T10:56:13;100153.34;;;31.15;58.24
45541;BME280;31265;49.680;8.608;2023-05-22T10:58:43;100150.50;;;31.40;59.02
45541;BME280;31265;49.680;8.608;2023-05-22T11:01:15;100146.91;;;31.23;58.26
45541;BME280;31265;49.680;8.608;2023-05-22T11:03:54;100151.84;;;30.47;59.27
45541;BME280;31265;49.680;8.608;2023-05-22T11:06:33;100140.38;;;30.34;58.05
45541;BME280;31265;49.680;8.608;2023-05-22T11:09:16;100140.47;;;31.24;59.21
45541;BME280;31265;49.680;8.608;2023-05-22T11:12:15;100148.28;;;31.67;57.00
45541;BME280;31265;49.680;8.608;2023-05-22T11:14:48;100141.09;;;31.78;53.65
45541;BME280;31265;49.680;8.608;2023-05-22T11:17:19;100141.19;;;31.13;53.32
45541;BME280;31265;49.680;8.608;2023-05-22T11:19:56;100139.66;;;30.46;59.23
45541;BME280;31265;49.680;8.608;2023-05-22T11:22:32;100126.16;;;31.16;53.71
45541;BME280;31265;49.680;8.608;2023-05-22T11:25:06;100121.84;;;30.91;53.87
45541;BME280;31265;49.680;8.608;2023-05-22T11:27:39;100126.16;;;31.04;54.20
45541;BME280;31265;49.680;8.608;2023-05-22T11:30:09;100126.16;;;30.94;57.13
45541;BME280;31265;49.680;8.608;2023-05-22T11:32:38;100128.28;;;31.10;56.48
45541;BME280;31265;49.680;8.608;2023-05-22T11:35:12;100127.53;;;31.50;51.40
45541;BME280;31265;49.680;8.608;2023-05-22T11:37:41;100132.56;;;31.47;49.55
45541;BME280;31265;49.680;8.608;2023-05-22T11:40:11;100126.06;;;31.78;50.61
45541;BME280;31265;49.680;8.608;2023-05-22T11:42:42;100116.47;;;32.37;49.70
45541;BME280;31265;49.680;8.608;2023-05-22T11:45:11;100115.75;;;32.34;49.84
45541;BME280;31265;49.680;8.608;2023-05-22T11:47:40;100110.56;;;32.65;46.43
45541;BME280;31265;49.680;8.608;2023-05-22T11:50:10;100110.69;;;32.43;45.90
45541;BME280;31265;49.680;8.608;2023-05-22T11:52:40;100106.63;;;31.95;48.09
45541;BME280;31265;49.680;8.608;2023-05-22T11:55:10;100108.53;;;32.49;46.46
45541;BME280;31265;49.680;8.608;2023-05-22T11:57:38;100105.44;;;32.78;44.47
45541;BME280;31265;49.680;8.608;2023-05-22T12:00:12;100097.13;;;32.29;48.54
45541;BME280;31265;49.680;8.608;2023-05-22T12:02:44;100098.22;;;32.81;49.99
45541;BME280;31265;49.680;8.608;2023-05-22T12:05:13;100099.13;;;33.44;44.19
45541;BME280;31265;49.680;8.608;2023-05-22T12:07:43;100092.91;;;32.18;47.78
45541;BME280;31265;49.680;8.608;2023-05-22T12:10:12;100090.78;;;32.12;49.45
45541;BME280;31265;49.680;8.608;2023-05-22T12:12:43;100084.59;;;32.82;45.57
45541;BME280;31265;49.680;8.608;2023-05-22T12:15:17;100086.31;;;33.30;45.91
45541;BME280;31265;49.680;8.608;2023-05-22T12:17:45;100094.72;;;33.51;43.60
45541;BME280;31265;49.680;8.608;2023-05-22T12:20:14;100084.63;;;32.77;49.81
45541;BME280;31265;49.680;8.608;2023-05-22T12:22:44;100079.25;;;33.19;43.16
45541;BME280;31265;49.680;8.608;2023-05-22T12:25:13;100077.44;;;32.78;44.18
45541;BME280;31265;49.680;8.608;2023-05-22T12:27:43;100069.34;;;31.95;48.19
45541;BME280;31265;49.680;8.608;2023-05-22T12:30:15;100068.19;;;32.66;44.27
45541;BME280;31265;49.680;8.608;2023-05-22T12:32:47;100067.97;;;32.94;45.79
45541;BME280;31265;49.680;8.608;2023-05-22T12:35:16;100064.00;;;32.48;46.70
45541;BME280;31265;49.680;8.608;2023-05-22T12:37:49;100067.28;;;32.90;44.88
45541;BME280;31265;49.680;8.608;2023-05-22T12:40:17;100058.50;;;33.10;44.55
45541;BME280;31265;49.680;8.608;2023-05-22T12:42:47;100055.78;;;31.77;48.28
45541;BME280;31265;49.680;8.608;2023-05-22T12:45:17;100067.41;;;32.73;45.66
45541;BME280;31265;49.680;8.608;2023-05-22T12:47:45;100058.84;;;32.69;48.33
45541;BME280;31265;49.680;8.608;2023-05-22T12:50:14;100065.84;;;32.89;45.18
45541;BME280;31265;49.680;8.608;2023-05-22T12:52:42;100052.06;;;32.09;47.38
45541;BME280;31265;49.680;8.608;2023-05-22T12:55:10;100061.44;;;31.97;45.50
45541;BME280;31265;49.680;8.608;2023-05-22T12:57:38;100048.50;;;32.02;46.91
45541;BME280;31265;49.680;8.608;2023-05-22T13:00:07;100055.97;;;32.69;46.21
45541;BME280;31265;49.680;8.608;2023-05-22T13:02:37;100056.84;;;32.43;46.49
45541;BME280;31265;49.680;8.608;2023-05-22T13:05:06;100058.31;;;32.42;44.43